Mooney, MT

12:36 AM MDT on May 30, 2015 (GMT -0600)
Mooney | | Change Station
CLOSE
Current Station
Airport
Location: Butte,
Elevation: 5545 ft
Nearby Weather Stations

Elev 5545 ft 45.95 °N, 112.50 °W | Updated 43 minutes ago

Partly Cloudy
Partly Cloudy
54 °F
Feels Like 54 °F
N
0
Wind Variable Wind from North

Today
High -- | Low -- °F
--% Chance of Precip.
Yesterday
High -- | Low -- °F
Precip. -- in
5:44 AM 9:11 PM
Waxing Gibbous, 88% visible
Pressure 30.03 in
Visibility 10.0 miles
Clouds Few 11000 ft
Dew Point 46 °F
Humidity 75%
Rainfall 0.00 in
Snow Depth Not available.
UV 0 out of 12
Pollen 5.70 out of 12
Air Quality Not available.
Flu Activity Sporadic
METAR KBTM 300553Z AUTO 00000KT 10SM FEW110 12/08 A3014 RMK AO2 SLP169 60000 T01220078 10189 20122 51007

More Conditions Fewer Conditions

Pressure 30.03 in
Visibility 10.0 miles
Clouds Few 11000 ft
Dew Point 46 °F
Humidity 75%
Rainfall 0.00 in
Snow Depth Not available.
UV 0 out of 12
Pollen 5.70 out of 12
Air Quality Not available.
Flu Activity Sporadic
METAR KBTM 300553Z AUTO 00000KT 10SM FEW110 12/08 A3014 RMK AO2 SLP169 60000 T01220078 10189 20122 51007

More Conditions Fewer Conditions

10-Day Weather Forecast

Almanac

Astronomy

May. 30, 2015 Rise Set
Actual Time
Civil Twilight
Nautical Twilight
Astronomical Twilight
Moon
Length of Visible Light
Length of Day
Tomorrow will be .
, % of the Moon is Illuminated

Today's Extremes

State Highs State Lows

Community

WunderPhotos

Upload Photos

1,825,472 photos uploaded!

WunderBlogs® & News

Nearby

Air Quality

  Air Quality AQ Index Pollutant
Not available.

Snow Depth

Station Depth Elevation

Earthquake Activity

City Distance Mag. Time & Date
Minimum magnitude displayed is 2.5.

Coastal Water Temperatures

Place Temperature

Stations

Nearby Weather Stations

Station Location Temp. Windchill Dew Point Humidity Wind Precip. Elev Updated Type